Time;durP1;ratioP1;P1;durP2;ratioP2;P2;SDS_P1;SDS_P2;PMS_P1;PMS_P2;Temp;Humidity;BMP_temperature;BMP_pressure;BME280_temperature;BME280_humidity;BME280_pressure;Samples;Min_cycle;Max_cycle;Signal;HPM_P1;HPM_P2
2023/04/18 00:00:55;;;;;;;14.03;7.97;;;;;;;9.95;56.80;100760.69;5060237;28;20114;-82
2023/04/18 00:03:21;;;;;;;16.63;8.20;;;;;;;10.00;57.26;100767.13;5058549;28;20261;-82
2023/04/18 00:05:46;;;;;;;15.15;8.75;;;;;;;9.79;58.86;100761.16;5057900;28;20269;-82
2023/04/18 00:08:13;;;;;;;13.85;8.25;;;;;;;10.11;58.20;100765.44;5058561;28;20037;-82
2023/04/18 00:10:38;;;;;;;14.63;7.72;;;;;;;10.02;58.47;100758.69;5059280;28;20024;-82
2023/04/18 00:13:03;;;;;;;13.48;8.38;;;;;;;10.01;58.47;100768.75;5059340;28;20539;-81
2023/04/18 00:15:30;;;;;;;18.50;8.73;;;;;;;10.11;58.67;100762.72;5058309;28;20451;-82
2023/04/18 00:17:55;;;;;;;13.70;8.52;;;;;;;10.00;58.68;100760.81;5058891;28;20063;-81
2023/04/18 00:20:24;;;;;;;10.90;7.03;;;;;;;9.93;59.47;100761.75;5059235;28;20029;-82
2023/04/18 00:22:51;;;;;;;13.48;7.57;;;;;;;9.80;60.28;100762.00;5059915;28;20462;-82
2023/04/18 00:25:17;;;;;;;16.85;7.60;;;;;;;9.64;60.96;100760.78;5058388;28;20068;-82
2023/04/18 00:27:42;;;;;;;17.33;9.00;;;;;;;9.65;61.76;100754.28;5059440;28;20653;-82
2023/04/18 00:30:08;;;;;;;17.13;8.77;;;;;;;9.58;62.04;100755.19;5058941;28;20048;-83
2023/04/18 00:32:33;;;;;;;12.45;7.15;;;;;;;9.61;62.30;100751.19;5060089;28;20576;-81
2023/04/18 00:34:59;;;;;;;13.67;7.67;;;;;;;9.67;62.57;100752.97;5059608;28;20119;-82
2023/04/18 00:37:24;;;;;;;12.15;6.50;;;;;;;9.78;62.10;100753.25;5059768;28;20630;-82
2023/04/18 00:39:52;;;;;;;13.30;8.13;;;;;;;9.77;62.79;100759.72;5059432;28;20417;-82
2023/04/18 00:42:18;;;;;;;13.90;7.57;;;;;;;9.71;62.90;100750.63;5058408;28;20500;-82
2023/04/18 00:44:43;;;;;;;16.73;7.72;;;;;;;9.87;62.60;100756.44;5059023;28;20033;-82
2023/04/18 00:47:08;;;;;;;14.37;7.63;;;;;;;9.68;63.26;100748.38;5059516;28;20035;-81
2023/04/18 00:49:33;;;;;;;13.00;7.13;;;;;;;9.28;64.55;100750.63;5058032;28;20320;-81
2023/04/18 00:51:59;;;;;;;10.10;6.45;;;;;;;9.17;65.68;100749.53;5057838;28;20081;-83
2023/04/18 00:54:26;;;;;;;12.95;6.78;;;;;;;8.97;66.12;100749.81;5059842;28;20116;-83
2023/04/18 00:56:51;;;;;;;12.18;7.03;;;;;;;9.08;66.17;100746.31;5058565;28;20107;-82
2023/04/18 00:59:17;;;;;;;15.18;8.45;;;;;;;9.37;64.97;100751.16;5059557;28;20035;-82
2023/04/18 01:01:43;;;;;;;12.85;6.55;;;;;;;9.27;65.53;100753.59;5058576;28;20040;-82
2023/04/18 01:04:09;;;;;;;15.35;6.88;;;;;;;9.22;65.69;100755.13;5058530;28;20040;-82
2023/04/18 01:06:35;;;;;;;12.15;7.55;;;;;;;9.22;65.61;100749.69;5059750;28;20029;-82
2023/04/18 01:09:01;;;;;;;12.18;6.38;;;;;;;9.32;64.99;100742.84;5059005;28;20069;-82
2023/04/18 01:11:26;;;;;;;17.55;7.35;;;;;;;9.03;66.03;100748.06;5058583;28;20033;-82
2023/04/18 01:14:00;;;;;;;8.88;4.60;;;;;;;8.92;66.42;100750.50;5058632;28;20063;-82
2023/04/18 01:16:26;;;;;;;10.77;5.93;;;;;;;9.08;66.34;100740.03;5058703;28;21410;-81
2023/04/18 01:18:52;;;;;;;10.15;5.68;;;;;;;8.96;66.44;100743.56;5059047;28;20750;-82
2023/04/18 01:21:18;;;;;;;14.00;5.13;;;;;;;9.02;66.26;100732.78;5061669;28;20040;-82
2023/04/18 01:23:45;;;;;;;16.92;6.55;;;;;;;9.22;65.30;100736.06;5062166;28;20086;-81
2023/04/18 01:26:10;;;;;;;8.80;5.50;;;;;;;9.16;65.92;100737.00;5060635;28;20040;-82
2023/04/18 01:28:36;;;;;;;11.35;6.18;;;;;;;9.22;65.28;100727.91;5062210;28;20032;-82
2023/04/18 01:31:01;;;;;;;13.40;6.25;;;;;;;9.29;64.78;100725.09;5062523;28;20033;-82
2023/04/18 01:33:26;;;;;;;14.03;7.07;;;;;;;9.21;65.37;100733.59;5062110;28;20052;-82
2023/04/18 01:35:52;;;;;;;11.23;6.23;;;;;;;9.27;65.38;100726.38;5061533;28;20269;-82
2023/04/18 01:38:17;;;;;;;13.57;6.17;;;;;;;9.28;65.27;100728.03;5062168;28;20805;-82
2023/04/18 01:40:42;;;;;;;10.52;5.93;;;;;;;9.24;65.96;100724.94;5061646;28;20281;-82
2023/04/18 01:43:07;;;;;;;15.30;6.82;;;;;;;9.35;65.09;100728.78;5061873;28;20027;-82
2023/04/18 01:45:33;;;;;;;14.23;8.13;;;;;;;9.25;65.33;100737.50;5089570;28;20040;-82
2023/04/18 01:47:58;;;;;;;12.37;7.00;;;;;;;9.18;65.69;100732.16;5061824;28;20277;-82
2023/04/18 01:50:23;;;;;;;16.80;7.43;;;;;;;9.06;66.46;100731.28;5061497;28;20273;-82
2023/04/18 01:52:49;;;;;;;17.17;9.27;;;;;;;8.72;67.01;100732.56;5061934;28;20249;-82
2023/04/18 01:55:14;;;;;;;14.33;5.70;;;;;;;8.80;67.39;100733.31;5060867;28;20035;-82
2023/04/18 01:57:39;;;;;;;16.97;6.93;;;;;;;8.94;66.66;100723.06;5061988;28;20265;-82
2023/04/18 02:00:05;;;;;;;14.77;7.50;;;;;;;8.95;66.92;100728.28;5061614;28;20344;-82
2023/04/18 02:02:31;;;;;;;11.05;5.72;;;;;;;9.12;66.11;100724.91;5062629;28;20254;-82
2023/04/18 02:04:56;;;;;;;13.88;7.32;;;;;;;9.05;66.11;100724.19;5061573;28;20036;-82
2023/04/18 02:07:22;;;;;;;12.10;6.67;;;;;;;9.09;65.92;100720.75;5061190;28;20071;-82
2023/04/18 02:09:47;;;;;;;14.82;7.45;;;;;;;9.13;66.08;100723.88;5061121;28;20280;-82
2023/04/18 02:12:12;;;;;;;13.70;7.53;;;;;;;9.09;65.92;100720.75;5061315;28;20039;-82
2023/04/18 02:14:38;;;;;;;13.38;6.63;;;;;;;9.12;66.44;100722.19;5059936;28;20319;-82
2023/04/18 02:17:03;;;;;;;12.10;7.73;;;;;;;9.18;65.79;100718.56;5060524;28;20024;-82
2023/04/18 02:19:29;;;;;;;12.23;7.07;;;;;;;9.13;65.99;100714.88;5060875;28;20257;-82
2023/04/18 02:21:54;;;;;;;15.32;8.25;;;;;;;9.14;65.70;100716.50;5061527;28;20273;-82
2023/04/18 02:24:19;;;;;;;14.02;7.13;;;;;;;8.88;66.63;100724.81;5060831;28;20039;-82
2023/04/18 02:26:45;;;;;;;13.00;7.90;;;;;;;8.82;66.54;100725.75;5060483;28;20032;-82
2023/04/18 02:29:10;;;;;;;16.00;6.88;;;;;;;8.91;66.31;100718.91;5061090;28;20486;-82
2023/04/18 02:31:38;;;;;;;11.75;6.88;;;;;;;8.98;66.51;100716.94;5059569;28;20116;-82
2023/04/18 02:34:03;;;;;;;11.13;5.88;;;;;;;8.77;67.10;100729.13;5060189;28;20600;-82
2023/04/18 02:36:29;;;;;;;13.75;6.63;;;;;;;8.90;66.57;100711.84;5059307;28;20028;-82
2023/04/18 02:38:55;;;;;;;11.70;6.53;;;;;;;8.77;66.89;100720.19;5060027;28;20479;-82
2023/04/18 02:41:20;;;;;;;11.93;5.90;;;;;;;8.71;67.35;100725.44;5061112;28;20025;-81
2023/04/18 02:43:45;;;;;;;10.80;4.93;;;;;;;8.73;66.52;100725.22;5059680;28;20446;-82
2023/04/18 02:46:11;;;;;;;8.18;5.00;;;;;;;8.71;67.02;100725.44;5059615;28;20269;-82
2023/04/18 02:48:36;;;;;;;13.77;6.40;;;;;;;8.74;66.55;100725.00;5060554;28;20042;-81
2023/04/18 02:51:06;;;;;;;10.07;5.63;;;;;;;8.74;66.56;100724.16;5061575;28;20036;-82
2023/04/18 02:53:31;;;;;;;9.88;5.45;;;;;;;8.61;66.90;100722.44;5059587;28;20397;-77
2023/04/18 02:55:57;;;;;;;12.88;6.65;;;;;;;8.63;66.84;100717.59;5059348;28;21290;-77
2023/04/18 02:58:23;;;;;;;9.13;5.50;;;;;;;8.63;66.31;100723.03;5059664;28;20126;-77
2023/04/18 03:00:51;;;;;;;10.40;5.15;;;;;;;8.79;66.06;100727.03;5059939;28;20028;-77
2023/04/18 03:03:16;;;;;;;9.07;5.53;;;;;;;8.89;65.76;100714.78;5059724;28;20029;-77
2023/04/18 03:05:41;;;;;;;8.73;4.55;;;;;;;8.55;66.52;100718.72;5058979;28;20043;-77
2023/04/18 03:08:07;;;;;;;13.17;6.20;;;;;;;8.61;66.67;100711.56;5059207;28;20029;-77
2023/04/18 03:10:33;;;;;;;15.30;5.50;;;;;;;8.78;66.20;100719.09;5059436;28;20256;-77
2023/04/18 03:12:58;;;;;;;10.02;5.18;;;;;;;8.76;65.91;100711.19;5060098;28;20799;-77
2023/04/18 03:15:23;;;;;;;11.32;5.03;;;;;;;8.68;65.92;100725.09;5059530;28;20132;-77
2023/04/18 03:17:49;;;;;;;10.53;5.47;;;;;;;8.64;66.17;100724.72;5058870;28;20032;-77
2023/04/18 03:20:14;;;;;;;9.27;4.53;;;;;;;8.48;67.10;100728.84;5059363;28;20806;-77
2023/04/18 03:22:40;;;;;;;7.95;4.60;;;;;;;8.43;67.10;100717.81;5058695;28;20040;-77
2023/04/18 03:25:06;;;;;;;10.57;5.30;;;;;;;8.46;67.18;100717.38;5059095;28;20040;-77
2023/04/18 03:27:31;;;;;;;10.85;5.70;;;;;;;8.49;66.83;100717.75;5059256;28;20264;-77
2023/04/18 03:29:56;;;;;;;10.70;4.83;;;;;;;8.59;66.66;100714.53;5059018;28;20710;-77
2023/04/18 03:32:21;;;;;;;11.27;5.63;;;;;;;8.37;66.78;100725.00;5058814;28;20272;-77
2023/04/18 03:34:47;;;;;;;11.07;5.93;;;;;;;8.41;67.39;100718.06;5058950;28;20280;-77
2023/04/18 03:37:12;;;;;;;9.43;5.28;;;;;;;8.35;67.19;100722.50;5058908;28;20036;-77
2023/04/18 03:39:38;;;;;;;11.53;5.70;;;;;;;8.17;67.77;100726.03;5058952;28;20048;-76
2023/04/18 03:42:03;;;;;;;10.80;5.73;;;;;;;8.34;67.34;100726.25;5059051;28;20266;-78
2023/04/18 03:44:28;;;;;;;9.87;4.33;;;;;;;8.24;67.30;100725.97;5059033;28;20745;-78
2023/04/18 03:46:54;;;;;;;13.05;4.60;;;;;;;8.21;67.08;100727.25;5059084;28;20264;-77
2023/04/18 03:49:20;;;;;;;12.35;5.63;;;;;;;8.05;68.67;100737.63;5057977;28;20683;-77
2023/04/18 03:51:49;;;;;;;9.57;4.80;;;;;;;8.23;68.24;100729.75;5058807;28;20109;-77
2023/04/18 03:54:15;;;;;;;10.02;4.00;;;;;;;8.12;68.23;100744.88;5058218;28;20122;-77
2023/04/18 03:56:40;;;;;;;11.57;5.13;;;;;;;7.90;68.65;100751.56;5057874;28;20126;-77
2023/04/18 03:59:06;;;;;;;10.00;4.35;;;;;;;8.02;68.69;100738.09;5059123;28;20052;-77
2023/04/18 04:01:31;;;;;;;10.05;5.28;;;;;;;8.34;67.76;100736.31;5058019;28;20032;-77
2023/04/18 04:03:57;;;;;;;7.75;4.78;;;;;;;8.25;68.30;100743.94;5057937;28;20234;-77
2023/04/18 04:06:22;;;;;;;10.40;5.05;;;;;;;8.39;67.77;100740.03;5058192;28;20074;-77
2023/04/18 04:08:48;;;;;;;13.27;6.80;;;;;;;8.09;68.75;100750.78;5058878;28;20059;-77
2023/04/18 04:11:13;;;;;;;9.48;5.22;;;;;;;8.13;68.56;100752.00;5058252;28;20059;-77
2023/04/18 04:13:38;;;;;;;9.82;5.68;;;;;;;7.93;69.67;100742.16;5058518;28;20044;-77
2023/04/18 04:16:04;;;;;;;10.73;5.30;;;;;;;8.15;69.19;100739.84;5057836;28;20031;-77
2023/04/18 04:18:30;;;;;;;10.63;5.47;;;;;;;8.27;68.40;100749.97;5058178;28;20132;-77
2023/04/18 04:20:58;;;;;;;11.05;6.38;;;;;;;8.53;67.74;100754.28;5058456;28;20024;-78
2023/04/18 04:23:27;;;;;;;13.93;6.20;;;;;;;8.49;68.01;100755.78;5057633;28;20094;-77
2023/04/18 04:25:52;;;;;;;11.43;5.43;;;;;;;8.50;67.59;100745.75;5058793;28;20044;-77
2023/04/18 04:28:22;;;;;;;9.93;5.90;;;;;;;8.19;69.23;100748.38;5057768;28;20095;-78
2023/04/18 04:30:49;;;;;;;13.38;6.57;;;;;;;8.27;69.33;100758.97;5059344;28;21238;-77
2023/04/18 04:33:14;;;;;;;14.60;5.95;;;;;;;8.18;69.06;100765.72;5058464;28;20029;-76
2023/04/18 04:35:40;;;;;;;11.93;5.75;;;;;;;8.38;69.03;100768.25;5059479;28;20036;-77
2023/04/18 04:38:06;;;;;;;11.45;6.57;;;;;;;8.06;69.47;100763.75;5058242;28;20028;-76
2023/04/18 04:40:31;;;;;;;10.45;5.35;;;;;;;8.26;69.40;100773.59;5057203;28;20056;-76
2023/04/18 04:42:57;;;;;;;9.13;5.63;;;;;;;8.43;68.68;100767.56;5058309;28;20038;-76
2023/04/18 04:45:22;;;;;;;13.35;7.00;;;;;;;8.17;69.88;100772.22;5058242;28;20661;-77
2023/04/18 04:47:48;;;;;;;13.02;7.18;;;;;;;8.43;69.00;100780.31;5057990;28;20048;-77
2023/04/18 04:50:14;;;;;;;11.67;5.93;;;;;;;8.62;68.52;100781.19;5058201;28;20033;-77
2023/04/18 04:52:40;;;;;;;11.70;6.80;;;;;;;8.59;68.51;100784.34;5057748;28;20314;-77
2023/04/18 04:55:05;;;;;;;10.55;6.63;;;;;;;8.66;68.25;100779.69;5060505;28;20040;-77
2023/04/18 04:57:31;;;;;;;10.80;6.78;;;;;;;8.71;67.94;100782.56;5062149;28;20036;-77
2023/04/18 04:59:56;;;;;;;11.80;7.47;;;;;;;8.75;68.04;100781.03;5061427;28;20082;-77
2023/04/18 05:02:22;;;;;;;13.32;7.75;;;;;;;8.86;67.82;100789.50;5061868;28;20032;-77
2023/04/18 05:04:48;;;;;;;14.18;7.20;;;;;;;8.73;68.37;100785.88;5061722;28;20044;-78
2023/04/18 05:07:13;;;;;;;14.93;7.22;;;;;;;8.70;68.39;100786.34;5062069;28;20058;-77
2023/04/18 05:09:38;;;;;;;14.37;8.37;;;;;;;8.91;67.74;100786.91;5060765;28;20103;-78
2023/04/18 05:12:04;;;;;;;18.63;7.97;;;;;;;8.73;68.10;100785.03;5062653;28;20708;-77
2023/04/18 05:14:29;;;;;;;17.65;7.88;;;;;;;8.86;68.26;100781.34;5061242;28;20287;-78
2023/04/18 05:16:55;;;;;;;12.27;6.80;;;;;;;8.98;67.58;100779.50;5062257;28;20039;-77
2023/04/18 05:19:20;;;;;;;11.13;6.68;;;;;;;8.85;68.34;100785.09;5062064;28;20034;-77
2023/04/18 05:21:45;;;;;;;13.38;7.60;;;;;;;8.69;68.66;100786.53;5060397;28;20033;-77
2023/04/18 05:24:11;;;;;;;13.23;6.27;;;;;;;8.79;68.48;100791.47;5061677;28;20060;-77
2023/04/18 05:26:37;;;;;;;16.83;7.40;;;;;;;8.68;68.91;100780.28;5061158;28;20268;-77
2023/04/18 05:29:02;;;;;;;12.75;6.80;;;;;;;8.50;69.56;100787.34;5062005;28;20325;-77
2023/04/18 05:31:28;;;;;;;14.90;6.88;;;;;;;8.52;69.24;100792.56;5061768;28;20071;-78
2023/04/18 05:33:53;;;;;;;13.18;7.40;;;;;;;8.60;69.24;100795.00;5062037;28;20110;-78
2023/04/18 05:36:19;;;;;;;11.80;6.72;;;;;;;8.62;68.81;100800.22;5060921;28;20025;-77
2023/04/18 05:38:44;;;;;;;13.93;6.70;;;;;;;8.65;69.30;100805.19;5061161;28;20078;-78
2023/04/18 05:41:09;;;;;;;14.77;7.43;;;;;;;8.89;68.69;100810.78;5061733;28;20082;-77
2023/04/18 05:43:34;;;;;;;13.37;7.80;;;;;;;8.82;68.51;100805.44;5061563;28;20698;-77
2023/04/18 05:46:00;;;;;;;15.97;8.17;;;;;;;8.85;68.39;100806.84;5061132;28;20267;-77
2023/04/18 05:48:26;;;;;;;11.37;7.53;;;;;;;9.00;67.91;100803.75;5060981;28;20288;-78
2023/04/18 05:50:51;;;;;;;12.90;7.45;;;;;;;8.85;68.10;100804.13;5061274;28;20369;-78
2023/04/18 05:53:16;;;;;;;14.50;8.17;;;;;;;8.74;68.79;100800.31;5062054;28;20416;-78
2023/04/18 05:55:42;;;;;;;15.03;8.17;;;;;;;8.63;68.76;100810.03;5060259;28;20254;-77
2023/04/18 05:58:07;;;;;;;18.42;8.65;;;;;;;8.60;69.73;100810.50;5061083;28;20320;-77
2023/04/18 06:00:33;;;;;;;12.20;7.07;;;;;;;8.73;68.70;100810.34;5061704;28;20476;-78
2023/04/18 06:02:58;;;;;;;16.33;8.85;;;;;;;8.68;68.84;100812.91;5061410;28;20344;-78
2023/04/18 06:05:23;;;;;;;13.97;8.80;;;;;;;9.00;68.20;100814.63;5058896;28;20033;-77
2023/04/18 06:07:49;;;;;;;14.30;8.52;;;;;;;8.98;68.57;100822.19;5060471;28;20256;-77
2023/04/18 06:10:15;;;;;;;14.98;9.25;;;;;;;9.17;68.10;100825.72;5061509;28;20048;-78
2023/04/18 06:12:40;;;;;;;16.27;8.18;;;;;;;9.06;67.99;100823.78;5061160;28;20032;-77
2023/04/18 06:15:06;;;;;;;13.52;6.75;;;;;;;8.86;69.07;100824.84;5061482;28;20027;-77
2023/04/18 06:17:33;;;;;;;14.57;7.57;;;;;;;9.07;68.55;100826.25;5060241;28;20614;-79
2023/04/18 06:19:58;;;;;;;14.52;8.75;;;;;;;9.13;68.03;100827.25;5061968;28;20024;-82
2023/04/18 06:22:23;;;;;;;13.27;8.50;;;;;;;9.22;67.18;100828.59;5061072;28;20043;-82
2023/04/18 06:24:48;;;;;;;14.37;7.93;;;;;;;9.22;67.93;100833.19;5061730;28;20525;-81
2023/04/18 06:27:14;;;;;;;14.73;8.37;;;;;;;9.25;68.09;100832.75;5060201;28;20261;-80
2023/04/18 06:29:39;;;;;;;16.67;8.47;;;;;;;9.24;68.06;100828.34;5060480;28;20346;-81
2023/04/18 06:32:05;;;;;;;13.13;7.90;;;;;;;9.16;68.44;100828.66;5060732;28;20331;-81
2023/04/18 06:34:30;;;;;;;17.10;7.72;;;;;;;9.10;68.75;100827.69;5060178;28;20099;-80
2023/04/18 06:36:55;;;;;;;16.23;9.23;;;;;;;9.22;67.82;100836.75;5060274;28;20028;-81
2023/04/18 06:39:20;;;;;;;14.90;9.25;;;;;;;9.17;68.18;100835.78;5059984;28;20076;-80
2023/04/18 06:41:48;;;;;;;14.90;8.43;;;;;;;9.16;68.61;100834.94;5060374;28;20036;-78
2023/04/18 06:44:13;;;;;;;15.30;8.43;;;;;;;9.22;68.48;100846.78;5060390;28;20045;-81
2023/04/18 06:46:38;;;;;;;14.82;8.30;;;;;;;9.35;68.14;100834.91;5060312;28;20039;-81
2023/04/18 06:49:04;;;;;;;15.80;8.50;;;;;;;9.42;67.64;100835.66;5060455;28;20031;-80
2023/04/18 06:51:30;;;;;;;12.15;7.05;;;;;;;9.25;68.77;100837.34;5059986;28;20257;-81
2023/04/18 06:53:55;;;;;;;14.82;7.65;;;;;;;9.09;69.54;100842.38;5060428;28;20109;-80
2023/04/18 06:56:21;;;;;;;12.35;7.90;;;;;;;9.29;68.95;100842.13;5058741;28;20868;-80
2023/04/18 06:58:47;;;;;;;13.98;7.05;;;;;;;9.29;68.95;100838.56;5061260;28;20028;-80
2023/04/18 07:01:12;;;;;;;14.50;7.40;;;;;;;9.38;68.62;100831.72;5057405;28;20565;-81
2023/04/18 07:03:38;;;;;;;12.73;8.32;;;;;;;9.29;68.69;100835.84;5059997;28;20034;-81
2023/04/18 07:06:04;;;;;;;19.27;9.35;;;;;;;9.39;68.78;100843.44;5059420;28;20095;-80
2023/04/18 07:08:30;;;;;;;13.77;7.63;;;;;;;9.41;68.46;100846.78;5060189;28;20028;-81
2023/04/18 07:10:55;;;;;;;18.42;9.45;;;;;;;9.10;69.78;100842.13;5059771;28;20063;-80
2023/04/18 07:13:20;;;;;;;12.00;7.15;;;;;;;9.05;69.95;100838.44;5059257;28;20033;-80
2023/04/18 07:15:45;;;;;;;20.07;9.50;;;;;;;9.02;70.30;100844.31;5058880;28;20415;-80
2023/04/18 07:18:11;;;;;;;16.80;9.52;;;;;;;9.07;70.55;100841.78;5058880;28;20277;-80
2023/04/18 07:20:36;;;;;;;17.93;8.57;;;;;;;9.23;69.86;100852.00;5059021;28;20047;-78
2023/04/18 07:23:01;;;;;;;18.27;8.70;;;;;;;9.14;70.48;100852.53;5059370;28;20311;-80
2023/04/18 07:25:27;;;;;;;13.20;7.88;;;;;;;9.17;70.20;100852.09;5059427;28;20036;-79
2023/04/18 07:27:52;;;;;;;16.33;9.98;;;;;;;9.21;70.37;100856.03;5059711;28;20074;-81
2023/04/18 07:30:17;;;;;;;14.37;8.83;;;;;;;9.26;70.73;100855.31;5058778;28;20208;-83
2023/04/18 07:32:43;;;;;;;16.67;11.27;;;;;;;9.55;69.22;100859.13;5056767;28;20281;-79
2023/04/18 07:35:08;;;;;;;45.17;10.88;;;;;;;9.55;68.99;100863.75;5058268;28;20040;-82
2023/04/18 07:37:34;;;;;;;18.73;10.75;;;;;;;9.62;69.07;100861.75;5058635;28;20800;-81
2023/04/18 07:40:00;;;;;;;16.40;8.85;;;;;;;9.43;69.57;100861.81;5059200;28;20048;-82
2023/04/18 07:42:25;;;;;;;28.92;11.55;;;;;;;9.46;70.31;100855.06;5057211;28;20032;-81
2023/04/18 07:44:58;;;;;;;18.20;8.98;;;;;;;9.64;69.85;100861.53;5060086;28;20078;-81
2023/04/18 07:47:25;;;;;;;17.77;10.00;;;;;;;9.72;69.46;100866.66;5059475;28;20448;-81
2023/04/18 07:49:50;;;;;;;18.55;10.55;;;;;;;9.83;69.32;100865.03;5059293;28;20016;-82
2023/04/18 07:52:16;;;;;;;20.87;10.03;;;;;;;10.02;68.58;100860.34;5059040;28;20402;-82
2023/04/18 07:54:41;;;;;;;13.57;9.10;;;;;;;10.19;67.60;100867.81;5058068;28;20253;-83
2023/04/18 07:57:06;;;;;;;18.13;11.63;;;;;;;10.02;68.47;100862.22;5060215;28;20066;-82
2023/04/18 07:59:31;;;;;;;20.43;11.07;;;;;;;10.14;67.92;100873.13;5060277;28;20399;-79
2023/04/18 08:01:57;;;;;;;17.43;10.07;;;;;;;9.76;68.98;100870.56;5059087;28;20262;-80
2023/04/18 08:04:22;;;;;;;22.52;9.77;;;;;;;9.75;69.50;100868.91;5059508;28;20310;-79
2023/04/18 08:06:47;;;;;;;20.48;10.48;;;;;;;9.87;68.98;100868.09;5056941;28;20486;-82
2023/04/18 08:09:13;;;;;;;26.55;11.18;;;;;;;9.77;69.08;100869.50;5058743;28;20116;-80
2023/04/18 08:11:41;;;;;;;25.65;10.70;;;;;;;9.69;69.02;100876.13;5057654;28;20743;-85
2023/04/18 08:14:06;;;;;;;25.73;11.77;;;;;;;9.81;68.79;100869.88;5059928;28;20033;-82
2023/04/18 08:16:31;;;;;;;20.52;10.65;;;;;;;9.95;68.48;100867.78;5059176;28;20034;-82
2023/04/18 08:18:56;;;;;;;16.58;9.40;;;;;;;9.88;68.49;100876.06;5060815;28;20048;-82
2023/04/18 08:21:22;;;;;;;19.43;10.23;;;;;;;9.82;68.90;100879.72;5059649;28;20036;-80
2023/04/18 08:23:47;;;;;;;23.10;10.27;;;;;;;9.91;68.55;100872.84;5059293;28;20259;-82
2023/04/18 08:26:12;;;;;;;17.23;9.35;;;;;;;9.84;68.61;100883.03;5059524;28;20070;-82
2023/04/18 08:28:38;;;;;;;15.57;9.87;;;;;;;9.81;68.77;100888.94;5058956;28;20032;-82
2023/04/18 08:31:03;;;;;;;17.38;9.70;;;;;;;9.62;68.97;100880.81;5063030;28;20269;-80
2023/04/18 08:33:28;;;;;;;17.77;11.23;;;;;;;9.53;69.82;100871.31;5062763;28;20466;-81
2023/04/18 08:35:54;;;;;;;19.80;9.90;;;;;;;9.43;70.48;100877.31;5062895;28;20153;-78
2023/04/18 08:38:19;;;;;;;19.48;9.93;;;;;;;9.73;69.26;100881.09;5059933;28;20034;-81
2023/04/18 08:40:45;;;;;;;16.23;8.95;;;;;;;9.58;69.64;100885.06;5063747;28;20029;-80
2023/04/18 08:43:13;;;;;;;15.40;9.85;;;;;;;9.53;70.13;100884.94;5062484;28;20035;-80
2023/04/18 08:45:43;;;;;;;19.52;9.85;;;;;;;9.56;70.45;100895.34;5062869;28;20033;-79
2023/04/18 08:48:16;;;;;;;19.92;8.82;;;;;;;9.72;70.01;100884.88;5061710;28;21178;-80
2023/04/18 08:50:42;;;;;;;19.23;8.57;;;;;;;9.68;69.90;100895.41;5063826;28;20033;-80
2023/04/18 08:53:08;;;;;;;16.73;9.95;;;;;;;9.78;69.85;100901.13;5078578;28;20560;-80
2023/04/18 08:55:34;;;;;;;18.08;9.45;;;;;;;9.77;69.92;100887.72;5061168;28;21099;-78
2023/04/18 08:58:00;;;;;;;16.83;9.07;;;;;;;9.63;70.17;100890.66;5062357;28;20033;-76
2023/04/18 09:00:26;;;;;;;16.33;8.90;;;;;;;9.85;69.44;100894.75;5061692;28;20117;-77
2023/04/18 09:02:58;;;;;;;18.90;9.73;;;;;;;9.55;70.11;100880.91;5061940;28;20049;-76
2023/04/18 09:05:25;;;;;;;17.00;9.50;;;;;;;9.49;71.29;100889.16;5062231;28;20032;-77
2023/04/18 09:07:53;;;;;;;14.88;9.13;;;;;;;9.43;71.08;100888.19;5061767;28;20035;-77
2023/04/18 09:10:27;;;;;;;19.95;11.15;;;;;;;9.48;71.34;100893.78;5062710;28;20071;-79
2023/04/18 09:12:53;;;;;;;15.75;7.82;;;;;;;9.44;71.08;100893.41;5061728;28;20115;-78
2023/04/18 09:15:22;;;;;;;17.05;9.90;;;;;;;9.36;72.30;100887.47;5061571;28;20038;-79
2023/04/18 09:17:51;;;;;;;19.58;9.45;;;;;;;9.33;72.47;100894.19;5062810;28;20094;-78
2023/04/18 09:20:34;;;;;;;15.70;9.60;;;;;;;9.11;73.20;100886.50;5060964;28;20047;-79
2023/04/18 09:23:02;;;;;;;18.98;11.25;;;;;;;9.48;72.43;100890.25;5060899;28;20031;-81
2023/04/18 09:25:33;;;;;;;19.33;12.45;;;;;;;9.76;71.41;100891.53;5062098;28;20036;-78
2023/04/18 09:28:00;;;;;;;17.42;9.52;;;;;;;9.56;71.57;100884.44;5061948;28;20588;-80
2023/04/18 09:30:39;;;;;;;19.20;10.00;;;;;;;9.59;72.25;100886.72;5061221;28;20025;-78
2023/04/18 09:33:08;;;;;;;19.80;10.45;;;;;;;9.55;72.01;100893.69;5061868;28;20040;-77
2023/04/18 09:35:34;;;;;;;18.42;10.10;;;;;;;9.46;73.25;100888.56;5061651;28;20123;-76
2023/04/18 09:37:59;;;;;;;17.83;9.82;;;;;;;9.65;71.98;100893.97;5062021;28;20035;-76
2023/04/18 09:40:24;;;;;;;16.95;10.55;;;;;;;9.48;72.57;100898.41;5060853;28;20057;-75
2023/04/18 09:42:53;;;;;;;18.08;8.90;;;;;;;9.57;73.21;100897.03;5061527;28;20032;-76
2023/04/18 09:45:18;;;;;;;21.05;10.95;;;;;;;9.82;71.68;100890.59;5061204;28;20109;-76
2023/04/18 09:47:44;;;;;;;21.23;10.13;;;;;;;10.04;71.29;100892.78;5060501;28;20032;-77
2023/04/18 09:50:09;;;;;;;21.70;10.43;;;;;;;9.97;71.75;100881.16;5061699;28;20143;-77
2023/04/18 09:52:37;;;;;;;20.02;9.88;;;;;;;10.12;71.04;100892.47;5061749;28;20025;-76
2023/04/18 09:55:04;;;;;;;17.50;9.88;;;;;;;10.23;70.68;100879.91;5061110;28;20032;-79
2023/04/18 09:57:31;;;;;;;16.63;9.80;;;;;;;10.38;70.06;100884.91;5061500;28;20185;-79
2023/04/18 10:00:09;;;;;;;19.50;11.23;;;;;;;10.24;70.72;100880.72;5061258;28;20040;-78
2023/04/18 10:02:45;;;;;;;20.40;10.93;;;;;;;10.32;70.81;100876.81;5061512;28;20090;-79
2023/04/18 10:05:13;;;;;;;17.60;10.35;;;;;;;10.21;70.90;100881.22;5060877;28;20041;-78
2023/04/18 10:07:39;;;;;;;21.33;9.25;;;;;;;10.27;70.76;100883.00;5061108;28;20114;-80
2023/04/18 10:10:05;;;;;;;23.90;12.00;;;;;;;10.29;71.15;100878.16;5061683;28;20120;-79
2023/04/18 10:12:31;;;;;;;15.63;10.35;;;;;;;10.47;70.57;100874.50;5060734;28;20713;-78
2023/04/18 10:14:57;;;;;;;22.13;10.38;;;;;;;10.55;70.35;100876.06;5061246;28;20039;-77
2023/04/18 10:17:25;;;;;;;19.33;10.45;;;;;;;10.74;69.49;100873.19;5061065;28;20051;-78
2023/04/18 10:20:09;;;;;;;16.35;9.50;;;;;;;10.92;69.01;100872.19;5060147;28;20036;-78
2023/04/18 10:22:34;;;;;;;17.40;10.10;;;;;;;11.08;68.13;100870.63;5061633;28;20028;-78
2023/04/18 10:25:00;;;;;;;16.17;8.25;;;;;;;10.96;68.71;100873.38;5060736;28;20047;-77
2023/04/18 10:27:47;;;;;;;23.83;10.27;;;;;;;11.17;68.01;100871.09;5060765;28;20032;-78
2023/04/18 10:30:13;;;;;;;19.23;11.60;;;;;;;11.56;67.21;100873.22;5061026;28;20036;-76
2023/04/18 10:32:38;;;;;;;19.45;12.70;;;;;;;11.69;66.80;100860.34;5059722;28;20032;-78
2023/04/18 10:35:05;;;;;;;17.20;9.32;;;;;;;11.68;67.00;100861.41;5061057;28;20054;-76
2023/04/18 10:37:30;;;;;;;18.52;9.35;;;;;;;11.70;66.51;100866.59;5060591;28;20024;-78
2023/04/18 10:39:59;;;;;;;21.00;10.98;;;;;;;11.76;66.79;100855.53;5060770;28;20513;-77
2023/04/18 10:42:46;;;;;;;19.05;10.57;;;;;;;11.72;66.45;100865.28;5060451;28;20387;-77
2023/04/18 10:45:17;;;;;;;21.30;11.20;;;;;;;11.89;65.54;100856.31;5060014;28;20158;-75
2023/04/18 10:47:42;;;;;;;18.85;11.25;;;;;;;12.28;66.00;100854.75;5059771;28;20035;-79
2023/04/18 10:50:08;;;;;;;20.95;11.23;;;;;;;12.66;64.65;100855.03;5060359;28;20379;-77
2023/04/18 10:52:33;;;;;;;18.10;10.10;;;;;;;12.80;63.56;100844.56;5059892;28;20064;-78
2023/04/18 10:55:27;;;;;;;20.00;10.73;;;;;;;12.96;63.57;100837.38;5059807;28;20121;-76
2023/04/18 10:57:55;;;;;;;19.27;10.10;;;;;;;12.80;63.48;100836.34;5054206;28;20051;-77
2023/04/18 11:00:22;;;;;;;20.83;11.30;;;;;;;12.76;63.73;100835.19;5060643;28;20610;-78
2023/04/18 11:02:52;;;;;;;18.35;10.20;;;;;;;12.77;62.77;100840.44;5060486;28;20028;-77
2023/04/18 11:05:19;;;;;;;16.48;9.20;;;;;;;12.46;63.54;100840.84;5060528;28;20036;-77
2023/04/18 11:07:47;;;;;;;28.25;12.25;;;;;;;12.59;63.38;100845.09;5060364;28;20039;-76
2023/04/18 11:10:16;;;;;;;18.55;11.50;;;;;;;12.54;63.97;100836.00;5060883;28;20036;-77
2023/04/18 11:12:41;;;;;;;19.73;10.63;;;;;;;12.67;63.31;100830.16;5059459;28;20064;-77
2023/04/18 11:15:20;;;;;;;19.35;10.20;;;;;;;12.56;63.63;100833.84;5060484;28;20121;-77
2023/04/18 11:17:45;;;;;;;21.10;12.05;;;;;;;12.94;63.38;100829.41;5059470;28;20063;-77